NAPEX1 EDDH-EHAM
Flight info
| Callsign | NAPEX1 |
|---|---|
| Flight time | 1h 2m |
| Altitude | 34000 |
| Route | WSN5G WSN N125 BLUFA BLUFA1A |
| Aircraft | C25C/L-SG/L |
Departure
| Time | 2026-05-06 18:23 |
|---|---|
| Airport | Hamburg Helmut Schmidt Airport (EDDH) |
Arrival
| Time | 2026-05-06 19:25 |
|---|---|
| Airport | Amsterdam Airport Schiphol (EHAM) |
| Time | Latitude | Longitude | Altitude | Speed | Heading |
|---|---|---|---|---|---|
| 2026-05-06 18:02 | 53.63169 | 10.00367 | 39 ft | 0 kts | 87° |
| 2026-05-06 18:16 | 53.63168 | 10.00344 | 39 ft | 2 kts | 87° |
| 2026-05-06 18:16 | 53.63168 | 10.00316 | 39 ft | 2 kts | 87° |
| 2026-05-06 18:16 | 53.63167 | 10.00289 | 39 ft | 2 kts | 87° |
| 2026-05-06 18:17 | 53.63166 | 10.00263 | 39 ft | 2 kts | 115° |
| 2026-05-06 18:17 | 53.63172 | 10.00254 | 39 ft | 0 kts | 174° |
| 2026-05-06 18:19 | 53.63124 | 10.00258 | 39 ft | 14 kts | 184° |
| 2026-05-06 18:19 | 53.63011 | 10.00161 | 39 ft | 21 kts | 212° |
| 2026-05-06 18:19 | 53.62950 | 10.00075 | 39 ft | 10 kts | 247° |
| 2026-05-06 18:20 | 53.62944 | 10.00056 | 39 ft | 7 kts | 237° |
| 2026-05-06 18:20 | 53.62927 | 10.00013 | 39 ft | 0 kts | 240° |
| 2026-05-06 18:20 | 53.62926 | 10.00012 | 39 ft | 1 kts | 232° |
| 2026-05-06 18:20 | 53.62891 | 10.00024 | 39 ft | 11 kts | 167° |
| 2026-05-06 18:21 | 53.62842 | 9.99958 | 40 ft | 0 kts | 245° |
| 2026-05-06 18:22 | 53.62821 | 9.99882 | 41 ft | 14 kts | 245° |
| 2026-05-06 18:22 | 53.62835 | 9.99773 | 40 ft | 5 kts | 326° |
| 2026-05-06 18:22 | 53.62838 | 9.99770 | 40 ft | 2 kts | 326° |
| 2026-05-06 18:22 | 53.63147 | 9.99503 | 38 ft | 109 kts | 335° |
| 2026-05-06 18:23 | 53.64064 | 9.98814 | 468 ft | 167 kts | 338° |
| 2026-05-06 18:23 | 53.65204 | 9.97855 | 1492 ft | 196 kts | 335° |
| 2026-05-06 18:23 | 53.66396 | 9.96732 | 2958 ft | 198 kts | 338° |
| 2026-05-06 18:23 | 53.67643 | 9.95655 | 4332 ft | 204 kts | 337° |
| 2026-05-06 18:24 | 53.69021 | 9.94482 | 5020 ft | 246 kts | 336° |
| 2026-05-06 18:24 | 53.70490 | 9.92787 | 5010 ft | 263 kts | 311° |
| 2026-05-06 18:24 | 53.71171 | 9.89933 | 5013 ft | 265 kts | 283° |
| 2026-05-06 18:24 | 53.71056 | 9.86854 | 5010 ft | 267 kts | 251° |
| 2026-05-06 18:25 | 53.70395 | 9.83942 | 5014 ft | 265 kts | 252° |
| 2026-05-06 18:25 | 53.69822 | 9.80995 | 5013 ft | 264 kts | 252° |
| 2026-05-06 18:25 | 53.69220 | 9.78070 | 5014 ft | 263 kts | 252° |
| 2026-05-06 18:25 | 53.68654 | 9.75139 | 5013 ft | 262 kts | 252° |
| 2026-05-06 18:26 | 53.68074 | 9.72227 | 5015 ft | 262 kts | 252° |
| 2026-05-06 18:26 | 53.67509 | 9.69306 | 5014 ft | 262 kts | 252° |
| 2026-05-06 18:26 | 53.66926 | 9.66390 | 5014 ft | 262 kts | 252° |
| 2026-05-06 18:26 | 53.66354 | 9.63464 | 5014 ft | 263 kts | 252° |
| 2026-05-06 18:27 | 53.65783 | 9.60610 | 5193 ft | 254 kts | 252° |
| 2026-05-06 18:27 | 53.65191 | 9.57844 | 5898 ft | 250 kts | 243° |
| 2026-05-06 18:27 | 53.64179 | 9.55546 | 7394 ft | 243 kts | 233° |
| 2026-05-06 18:27 | 53.63244 | 9.53112 | 8548 ft | 250 kts | 242° |
| 2026-05-06 18:28 | 53.62410 | 9.50486 | 9650 ft | 264 kts | 243° |
| 2026-05-06 18:28 | 53.61505 | 9.47594 | 10014 ft | 301 kts | 243° |
| 2026-05-06 18:28 | 53.60487 | 9.44214 | 10021 ft | 344 kts | 243° |
| 2026-05-06 18:28 | 53.59360 | 9.40439 | 10021 ft | 374 kts | 244° |
| 2026-05-06 18:29 | 53.58199 | 9.36506 | 10021 ft | 365 kts | 244° |
| 2026-05-06 18:29 | 53.57106 | 9.32837 | 10022 ft | 338 kts | 244° |
| 2026-05-06 18:29 | 53.56058 | 9.29429 | 10021 ft | 318 kts | 244° |
| 2026-05-06 18:29 | 53.55063 | 9.26203 | 10018 ft | 304 kts | 244° |
| 2026-05-06 18:30 | 53.54097 | 9.23102 | 10266 ft | 299 kts | 244° |
| 2026-05-06 18:30 | 53.53188 | 9.20087 | 11712 ft | 292 kts | 246° |
| 2026-05-06 18:30 | 53.52495 | 9.16845 | 12861 ft | 298 kts | 253° |
| 2026-05-06 18:30 | 53.51849 | 9.13510 | 14002 ft | 303 kts | 251° |
| 2026-05-06 18:31 | 53.51093 | 9.10205 | 15088 ft | 304 kts | 249° |
| 2026-05-06 18:31 | 53.50313 | 9.06886 | 16172 ft | 306 kts | 249° |
| 2026-05-06 18:31 | 53.49531 | 9.03526 | 17188 ft | 311 kts | 249° |
| 2026-05-06 18:31 | 53.48763 | 9.00114 | 18238 ft | 314 kts | 249° |
| 2026-05-06 18:32 | 53.47967 | 8.96671 | 19141 ft | 318 kts | 249° |
| 2026-05-06 18:32 | 53.47172 | 8.93186 | 20089 ft | 322 kts | 249° |
| 2026-05-06 18:32 | 53.46349 | 8.89652 | 21052 ft | 327 kts | 249° |
| 2026-05-06 18:32 | 53.45528 | 8.86063 | 22026 ft | 332 kts | 249° |
| 2026-05-06 18:33 | 53.44682 | 8.82431 | 22989 ft | 336 kts | 249° |
| 2026-05-06 18:33 | 53.43836 | 8.78749 | 23850 ft | 341 kts | 249° |
| 2026-05-06 18:33 | 53.42980 | 8.75082 | 24655 ft | 343 kts | 249° |
| 2026-05-06 18:33 | 53.42111 | 8.71329 | 25353 ft | 348 kts | 249° |
| 2026-05-06 18:34 | 53.41221 | 8.67533 | 26013 ft | 352 kts | 249° |
| 2026-05-06 18:34 | 53.40331 | 8.63682 | 26689 ft | 356 kts | 249° |
| 2026-05-06 18:34 | 53.39419 | 8.59802 | 27344 ft | 360 kts | 248° |
| 2026-05-06 18:34 | 53.38505 | 8.55878 | 27987 ft | 363 kts | 248° |
| 2026-05-06 18:35 | 53.37577 | 8.51941 | 28746 ft | 363 kts | 248° |
| 2026-05-06 18:35 | 53.36661 | 8.48020 | 29522 ft | 361 kts | 248° |
| 2026-05-06 18:35 | 53.35738 | 8.44117 | 30225 ft | 360 kts | 248° |
| 2026-05-06 18:35 | 53.34824 | 8.40230 | 30857 ft | 358 kts | 248° |
| 2026-05-06 18:36 | 53.33911 | 8.36371 | 31475 ft | 355 kts | 248° |
| 2026-05-06 18:36 | 53.33016 | 8.32587 | 32088 ft | 353 kts | 248° |
| 2026-05-06 18:36 | 53.32116 | 8.28786 | 32688 ft | 351 kts | 248° |
| 2026-05-06 18:36 | 53.31213 | 8.24993 | 33281 ft | 349 kts | 248° |
| 2026-05-06 18:37 | 53.30322 | 8.21233 | 33860 ft | 348 kts | 248° |
| 2026-05-06 18:37 | 53.29709 | 8.18672 | 33980 ft | 354 kts | 247° |
| 2026-05-06 18:37 | 53.28480 | 8.13517 | 34016 ft | 368 kts | 247° |
| 2026-05-06 18:37 | 53.27517 | 8.09496 | 34020 ft | 377 kts | 248° |
| 2026-05-06 18:38 | 53.25867 | 8.02618 | 34031 ft | 390 kts | 247° |
| 2026-05-06 18:38 | 53.23813 | 7.94081 | 34031 ft | 402 kts | 247° |
| 2026-05-06 18:39 | 53.21361 | 7.83921 | 34038 ft | 411 kts | 247° |
| 2026-05-06 18:40 | 53.18479 | 7.72057 | 34033 ft | 417 kts | 247° |
| 2026-05-06 18:40 | 53.16283 | 7.63059 | 34036 ft | 421 kts | 247° |
| 2026-05-06 18:41 | 53.14063 | 7.54001 | 34041 ft | 423 kts | 247° |
| 2026-05-06 18:41 | 53.11829 | 7.44922 | 34049 ft | 425 kts | 246° |
| 2026-05-06 18:42 | 53.09582 | 7.35827 | 33884 ft | 418 kts | 246° |
| 2026-05-06 18:42 | 53.08506 | 7.31475 | 33599 ft | 396 kts | 247° |
| 2026-05-06 18:42 | 53.07491 | 7.27398 | 33312 ft | 378 kts | 246° |
| 2026-05-06 18:42 | 53.06508 | 7.23438 | 33022 ft | 363 kts | 246° |
| 2026-05-06 18:43 | 53.05556 | 7.19629 | 32736 ft | 352 kts | 246° |
| 2026-05-06 18:43 | 53.04634 | 7.15923 | 32456 ft | 342 kts | 246° |
| 2026-05-06 18:43 | 53.03728 | 7.12312 | 32157 ft | 335 kts | 247° |
| 2026-05-06 18:43 | 53.02842 | 7.08774 | 31860 ft | 329 kts | 247° |
| 2026-05-06 18:44 | 53.01973 | 7.05303 | 31568 ft | 323 kts | 247° |
| 2026-05-06 18:44 | 53.01110 | 7.01881 | 31277 ft | 319 kts | 247° |
| 2026-05-06 18:44 | 53.00262 | 6.98500 | 30981 ft | 315 kts | 247° |
| 2026-05-06 18:44 | 52.99418 | 6.95159 | 30697 ft | 312 kts | 247° |
| 2026-05-06 18:45 | 52.98573 | 6.91806 | 30415 ft | 324 kts | 246° |
| 2026-05-06 18:45 | 52.97675 | 6.88257 | 30186 ft | 351 kts | 247° |
| 2026-05-06 18:45 | 52.96700 | 6.84406 | 29987 ft | 374 kts | 246° |
| 2026-05-06 18:45 | 52.95667 | 6.80330 | 29790 ft | 392 kts | 247° |
| 2026-05-06 18:46 | 52.94590 | 6.76087 | 29607 ft | 406 kts | 246° |
| 2026-05-06 18:46 | 52.93475 | 6.71714 | 29453 ft | 417 kts | 247° |
| 2026-05-06 18:46 | 52.92335 | 6.67242 | 29300 ft | 426 kts | 246° |
| 2026-05-06 18:46 | 52.91169 | 6.62679 | 29155 ft | 434 kts | 247° |
| 2026-05-06 18:47 | 52.89983 | 6.58048 | 29016 ft | 439 kts | 246° |
| 2026-05-06 18:47 | 52.88781 | 6.53367 | 28482 ft | 439 kts | 246° |
| 2026-05-06 18:47 | 52.87598 | 6.48767 | 27910 ft | 430 kts | 246° |
| 2026-05-06 18:47 | 52.86437 | 6.44256 | 27346 ft | 423 kts | 246° |
| 2026-05-06 18:48 | 52.85288 | 6.39811 | 26796 ft | 417 kts | 246° |
| 2026-05-06 18:48 | 52.84169 | 6.35484 | 26252 ft | 414 kts | 246° |
| 2026-05-06 18:48 | 52.82785 | 6.31370 | 25992 ft | 404 kts | 234° |
| 2026-05-06 18:48 | 52.81191 | 6.27643 | 26032 ft | 391 kts | 236° |
| 2026-05-06 18:49 | 52.79684 | 6.23943 | 25793 ft | 387 kts | 236° |
| 2026-05-06 18:49 | 52.78144 | 6.20285 | 25420 ft | 388 kts | 235° |
| 2026-05-06 18:49 | 52.76590 | 6.16624 | 25043 ft | 390 kts | 235° |
| 2026-05-06 18:49 | 52.75035 | 6.12956 | 24680 ft | 391 kts | 236° |
| 2026-05-06 18:50 | 52.73490 | 6.09272 | 24319 ft | 389 kts | 235° |
| 2026-05-06 18:50 | 52.71947 | 6.05631 | 23933 ft | 385 kts | 236° |
| 2026-05-06 18:50 | 52.70439 | 6.02067 | 23464 ft | 382 kts | 236° |
| 2026-05-06 18:50 | 52.68919 | 5.98498 | 22912 ft | 379 kts | 236° |
| 2026-05-06 18:51 | 52.67413 | 5.94940 | 22364 ft | 377 kts | 236° |
| 2026-05-06 18:51 | 52.65907 | 5.91408 | 21757 ft | 376 kts | 236° |
| 2026-05-06 18:51 | 52.64381 | 5.87820 | 20715 ft | 387 kts | 236° |
| 2026-05-06 18:51 | 52.62821 | 5.84167 | 19720 ft | 393 kts | 236° |
| 2026-05-06 18:52 | 52.61253 | 5.80494 | 18735 ft | 388 kts | 236° |
| 2026-05-06 18:52 | 52.59715 | 5.76909 | 17550 ft | 381 kts | 236° |
| 2026-05-06 18:52 | 52.58197 | 5.73362 | 16244 ft | 378 kts | 237° |
| 2026-05-06 18:52 | 52.56692 | 5.69850 | 14993 ft | 375 kts | 236° |
| 2026-05-06 18:53 | 52.55204 | 5.66387 | 13690 ft | 368 kts | 237° |
| 2026-05-06 18:53 | 52.53737 | 5.62981 | 12247 ft | 363 kts | 236° |
| 2026-05-06 18:53 | 52.52307 | 5.59657 | 10873 ft | 359 kts | 237° |
| 2026-05-06 18:53 | 52.50735 | 5.56496 | 9503 ft | 359 kts | 222° |
| 2026-05-06 18:54 | 52.48657 | 5.54267 | 8064 ft | 357 kts | 209° |
| 2026-05-06 18:54 | 52.46461 | 5.52420 | 6996 ft | 349 kts | 206° |
| 2026-05-06 18:54 | 52.44358 | 5.50780 | 6899 ft | 318 kts | 207° |
| 2026-05-06 18:54 | 52.42851 | 5.48422 | 6892 ft | 290 kts | 243° |
| 2026-05-06 18:55 | 52.42325 | 5.45386 | 6903 ft | 268 kts | 262° |
| 2026-05-06 18:55 | 52.41945 | 5.42471 | 6736 ft | 261 kts | 251° |
| 2026-05-06 18:55 | 52.41153 | 5.39743 | 6231 ft | 270 kts | 244° |
| 2026-05-06 18:55 | 52.40290 | 5.36974 | 5705 ft | 275 kts | 243° |
| 2026-05-06 18:56 | 52.39383 | 5.34191 | 5190 ft | 279 kts | 243° |
| 2026-05-06 18:56 | 52.38464 | 5.31384 | 4688 ft | 280 kts | 242° |
| 2026-05-06 18:56 | 52.37547 | 5.28605 | 4445 ft | 272 kts | 242° |
| 2026-05-06 18:56 | 52.36686 | 5.25996 | 4422 ft | 258 kts | 242° |
| 2026-05-06 18:57 | 52.35851 | 5.23470 | 4415 ft | 248 kts | 243° |
| 2026-05-06 18:57 | 52.35034 | 5.21040 | 4404 ft | 240 kts | 243° |
| 2026-05-06 18:57 | 52.34246 | 5.18672 | 4409 ft | 234 kts | 242° |
| 2026-05-06 18:57 | 52.33469 | 5.16364 | 4410 ft | 230 kts | 243° |
| 2026-05-06 18:58 | 52.32709 | 5.14088 | 4421 ft | 228 kts | 243° |
| 2026-05-06 18:58 | 52.31934 | 5.11767 | 4404 ft | 237 kts | 243° |
| 2026-05-06 18:58 | 52.31109 | 5.09293 | 4040 ft | 257 kts | 242° |
| 2026-05-06 18:58 | 52.30239 | 5.06645 | 3663 ft | 272 kts | 243° |
| 2026-05-06 18:59 | 52.29319 | 5.03901 | 3292 ft | 277 kts | 243° |
| 2026-05-06 18:59 | 52.28395 | 5.01110 | 2918 ft | 281 kts | 243° |
| 2026-05-06 18:59 | 52.27449 | 4.98292 | 2539 ft | 284 kts | 243° |
| 2026-05-06 18:59 | 52.26522 | 4.95518 | 2344 ft | 279 kts | 242° |
| 2026-05-06 19:00 | 52.25601 | 4.92780 | 2288 ft | 271 kts | 242° |
| 2026-05-06 19:00 | 52.24709 | 4.90112 | 2279 ft | 265 kts | 242° |
| 2026-05-06 19:00 | 52.23839 | 4.87489 | 2276 ft | 260 kts | 242° |
| 2026-05-06 19:00 | 52.22972 | 4.84908 | 2273 ft | 258 kts | 242° |
| 2026-05-06 19:01 | 52.22014 | 4.82440 | 2276 ft | 260 kts | 237° |
| 2026-05-06 19:01 | 52.21014 | 4.79925 | 2276 ft | 268 kts | 238° |
| 2026-05-06 19:01 | 52.19983 | 4.77358 | 2279 ft | 273 kts | 237° |
| 2026-05-06 19:01 | 52.18957 | 4.74774 | 2281 ft | 277 kts | 237° |
| 2026-05-06 19:02 | 52.17891 | 4.72119 | 2185 ft | 283 kts | 237° |
| 2026-05-06 19:02 | 52.16813 | 4.69431 | 2094 ft | 282 kts | 238° |
| 2026-05-06 19:02 | 52.15733 | 4.66786 | 2057 ft | 278 kts | 237° |
| 2026-05-06 19:02 | 52.15014 | 4.63980 | 2027 ft | 257 kts | 267° |
| 2026-05-06 19:03 | 52.15448 | 4.61459 | 2014 ft | 217 kts | 309° |
| 2026-05-06 19:03 | 52.16525 | 4.60007 | 2017 ft | 192 kts | 331° |
| 2026-05-06 19:03 | 52.17603 | 4.58839 | 2020 ft | 181 kts | 332° |
| 2026-05-06 19:03 | 52.18661 | 4.57756 | 2014 ft | 179 kts | 332° |
| 2026-05-06 19:04 | 52.19701 | 4.56679 | 2012 ft | 179 kts | 334° |
| 2026-05-06 19:04 | 52.20768 | 4.55687 | 2014 ft | 172 kts | 350° |
| 2026-05-06 19:04 | 52.21863 | 4.56089 | 2018 ft | 165 kts | 32° |
| 2026-05-06 19:04 | 52.22859 | 4.57021 | 2019 ft | 165 kts | 31° |
| 2026-05-06 19:05 | 52.23844 | 4.57982 | 2019 ft | 164 kts | 32° |
| 2026-05-06 19:05 | 52.24820 | 4.58949 | 2024 ft | 164 kts | 32° |
| 2026-05-06 19:05 | 52.25794 | 4.59913 | 2022 ft | 164 kts | 33° |
| 2026-05-06 19:05 | 52.26569 | 4.61242 | 2022 ft | 164 kts | 58° |
| 2026-05-06 19:06 | 52.27146 | 4.62773 | 2223 ft | 154 kts | 56° |
| 2026-05-06 19:06 | 52.27693 | 4.64202 | 2416 ft | 147 kts | 58° |
| 2026-05-06 19:06 | 52.28227 | 4.65585 | 2613 ft | 142 kts | 58° |
| 2026-05-06 19:06 | 52.28743 | 4.66937 | 2804 ft | 139 kts | 57° |
| 2026-05-06 19:07 | 52.29248 | 4.68286 | 2945 ft | 143 kts | 58° |
| 2026-05-06 19:07 | 52.29785 | 4.69703 | 2994 ft | 151 kts | 57° |
| 2026-05-06 19:07 | 52.30346 | 4.71201 | 3028 ft | 157 kts | 57° |
| 2026-05-06 19:07 | 52.30930 | 4.72754 | 3040 ft | 164 kts | 57° |
| 2026-05-06 19:08 | 52.31540 | 4.74343 | 3040 ft | 168 kts | 57° |
| 2026-05-06 19:08 | 52.32126 | 4.76009 | 3037 ft | 171 kts | 68° |
| 2026-05-06 19:08 | 52.31923 | 4.77914 | 3028 ft | 184 kts | 121° |
| 2026-05-06 19:08 | 52.30887 | 4.79226 | 3035 ft | 191 kts | 141° |
| 2026-05-06 19:09 | 52.29776 | 4.80406 | 3046 ft | 191 kts | 142° |
| 2026-05-06 19:09 | 52.28649 | 4.81549 | 3046 ft | 191 kts | 142° |
| 2026-05-06 19:09 | 52.27528 | 4.82721 | 3047 ft | 191 kts | 142° |
| 2026-05-06 19:09 | 52.26388 | 4.83931 | 2800 ft | 202 kts | 143° |
| 2026-05-06 19:10 | 52.25204 | 4.85217 | 2449 ft | 211 kts | 142° |
| 2026-05-06 19:10 | 52.23958 | 4.86534 | 2152 ft | 214 kts | 142° |
| 2026-05-06 19:10 | 52.22718 | 4.87812 | 2068 ft | 208 kts | 142° |
| 2026-05-06 19:10 | 52.21498 | 4.89015 | 2035 ft | 204 kts | 150° |
| 2026-05-06 19:11 | 52.20082 | 4.89219 | 2026 ft | 208 kts | 182° |
| 2026-05-06 19:11 | 52.18640 | 4.89010 | 2024 ft | 207 kts | 181° |
| 2026-05-06 19:11 | 52.17209 | 4.88775 | 2028 ft | 206 kts | 182° |
| 2026-05-06 19:11 | 52.15790 | 4.88540 | 2026 ft | 205 kts | 187° |
| 2026-05-06 19:12 | 52.14626 | 4.87288 | 2015 ft | 206 kts | 238° |
| 2026-05-06 19:12 | 52.14312 | 4.85080 | 2025 ft | 201 kts | 271° |
| 2026-05-06 19:12 | 52.14264 | 4.82809 | 2028 ft | 200 kts | 271° |
| 2026-05-06 19:12 | 52.14397 | 4.80587 | 2014 ft | 195 kts | 297° |
| 2026-05-06 19:13 | 52.15283 | 4.79185 | 2048 ft | 174 kts | 332° |
| 2026-05-06 19:13 | 52.16337 | 4.78055 | 2048 ft | 187 kts | 330° |
| 2026-05-06 19:13 | 52.17345 | 4.76648 | 2046 ft | 193 kts | 323° |
| 2026-05-06 19:13 | 52.18439 | 4.75403 | 2044 ft | 191 kts | 333° |
| 2026-05-06 19:14 | 52.19597 | 4.74514 | 2040 ft | 173 kts | 345° |
| 2026-05-06 19:14 | 52.20716 | 4.74063 | 2030 ft | 160 kts | 0° |
| 2026-05-06 19:14 | 52.21799 | 4.74069 | 2030 ft | 154 kts | 4° |
| 2026-05-06 19:14 | 52.22862 | 4.74103 | 2025 ft | 152 kts | 7° |
| 2026-05-06 19:15 | 52.23918 | 4.74190 | 2028 ft | 151 kts | 7° |
| 2026-05-06 19:15 | 52.24916 | 4.74559 | 2016 ft | 147 kts | 38° |
| 2026-05-06 19:15 | 52.25234 | 4.76092 | 2025 ft | 153 kts | 90° |
| 2026-05-06 19:15 | 52.25108 | 4.77808 | 2029 ft | 152 kts | 89° |
| 2026-05-06 19:16 | 52.24968 | 4.79504 | 2033 ft | 154 kts | 93° |
| 2026-05-06 19:16 | 52.24813 | 4.81226 | 2033 ft | 154 kts | 92° |
| 2026-05-06 19:16 | 52.24652 | 4.82951 | 2033 ft | 154 kts | 93° |
| 2026-05-06 19:16 | 52.24515 | 4.84678 | 2035 ft | 153 kts | 92° |
| 2026-05-06 19:17 | 52.24377 | 4.86398 | 2036 ft | 153 kts | 92° |
| 2026-05-06 19:17 | 52.24213 | 4.88108 | 2031 ft | 156 kts | 103° |
| 2026-05-06 19:17 | 52.23351 | 4.89240 | 2013 ft | 176 kts | 162° |
| 2026-05-06 19:17 | 52.22121 | 4.89117 | 2030 ft | 177 kts | 182° |
| 2026-05-06 19:18 | 52.20895 | 4.88929 | 2032 ft | 178 kts | 183° |
| 2026-05-06 19:18 | 52.19655 | 4.88701 | 2033 ft | 180 kts | 182° |
| 2026-05-06 19:18 | 52.18406 | 4.88471 | 2036 ft | 181 kts | 182° |
| 2026-05-06 19:18 | 52.17176 | 4.88256 | 2041 ft | 179 kts | 182° |
| 2026-05-06 19:19 | 52.15942 | 4.88046 | 2042 ft | 178 kts | 182° |
| 2026-05-06 19:19 | 52.14729 | 4.87697 | 2026 ft | 181 kts | 202° |
| 2026-05-06 19:19 | 52.14009 | 4.86112 | 2012 ft | 178 kts | 261° |
| 2026-05-06 19:19 | 52.13959 | 4.84121 | 2029 ft | 176 kts | 271° |
| 2026-05-06 19:20 | 52.13916 | 4.82133 | 2034 ft | 176 kts | 273° |
| 2026-05-06 19:20 | 52.13919 | 4.80148 | 2032 ft | 175 kts | 279° |
| 2026-05-06 19:20 | 52.14559 | 4.78631 | 2024 ft | 162 kts | 332° |
| 2026-05-06 19:20 | 52.15513 | 4.77653 | 2033 ft | 163 kts | 331° |
| 2026-05-06 19:21 | 52.16495 | 4.76788 | 2026 ft | 159 kts | 348° |
| 2026-05-06 19:21 | 52.17572 | 4.76720 | 2029 ft | 154 kts | 7° |
| 2026-05-06 19:21 | 52.18630 | 4.76803 | 2032 ft | 155 kts | 6° |
| 2026-05-06 19:21 | 52.19709 | 4.76889 | 1881 ft | 157 kts | 7° |
| 2026-05-06 19:22 | 52.20815 | 4.76986 | 1663 ft | 160 kts | 7° |
| 2026-05-06 19:22 | 52.21854 | 4.77077 | 1448 ft | 141 kts | 7° |
| 2026-05-06 19:22 | 52.22766 | 4.77158 | 1260 ft | 122 kts | 8° |
| 2026-05-06 19:22 | 52.23580 | 4.77234 | 1097 ft | 113 kts | 9° |
| 2026-05-06 19:23 | 52.24356 | 4.77304 | 946 ft | 111 kts | 7° |
| 2026-05-06 19:23 | 52.25117 | 4.77376 | 796 ft | 112 kts | 7° |
| 2026-05-06 19:23 | 52.25902 | 4.77448 | 654 ft | 113 kts | 5° |
| 2026-05-06 19:23 | 52.26697 | 4.77523 | 494 ft | 116 kts | 5° |
| 2026-05-06 19:24 | 52.27495 | 4.77592 | 345 ft | 116 kts | 4° |
| 2026-05-06 19:24 | 52.28265 | 4.77669 | 199 ft | 108 kts | 5° |
| 2026-05-06 19:24 | 52.28997 | 4.77719 | 62 ft | 102 kts | 5° |
| 2026-05-06 19:24 | 52.29649 | 4.77768 | 7 ft | 83 kts | 5° |
| 2026-05-06 19:25 | 52.30144 | 4.77827 | 10 ft | 60 kts | 5° |
| 2026-05-06 19:25 | 52.30369 | 4.77868 | 14 ft | 19 kts | 24° |
| 2026-05-06 19:25 | 52.30360 | 4.78040 | 14 ft | 18 kts | 128° |
| 2026-05-06 19:25 | 52.30291 | 4.78170 | 8 ft | 20 kts | 132° |
| 2026-05-06 19:26 | 52.30182 | 4.78369 | 8 ft | 25 kts | 130° |
| 2026-05-06 19:26 | 52.30070 | 4.78579 | 9 ft | 13 kts | 131° |
| 2026-05-06 19:26 | 52.30060 | 4.78598 | 8 ft | 8 kts | 131° |
| 2026-05-06 19:26 | 52.30090 | 4.78769 | 4 ft | 27 kts | 40° |
| 2026-05-06 19:27 | 52.30268 | 4.79023 | 1 ft | 38 kts | 41° |
| 2026-05-06 19:27 | 52.30453 | 4.79290 | 3 ft | 33 kts | 41° |
| 2026-05-06 19:27 | 52.30619 | 4.79523 | 5 ft | 30 kts | 42° |
| 2026-05-06 19:27 | 52.30771 | 4.79740 | 3 ft | 28 kts | 42° |
| 2026-05-06 19:28 | 52.30917 | 4.79953 | 2 ft | 28 kts | 41° |
| 2026-05-06 19:28 | 52.31043 | 4.80137 | 3 ft | 16 kts | 51° |
| 2026-05-06 19:28 | 52.31052 | 4.80310 | -2 ft | 16 kts | 56° |
| 2026-05-06 19:28 | 52.31107 | 4.80348 | 0 ft | 6 kts | 317° |
| 2026-05-06 19:29 | 52.31114 | 4.80337 | 0 ft | 0 kts | 314° |